sensor_id;sensor_type;location;lat;lon;timestamp;pressure;altitude;pressure_sealevel;temperature;humidity
32109;BME280;18624;50.042;8.436;2023-06-19T00:02:24;99864.56;;;24.51;48.75
32109;BME280;18624;50.042;8.436;2023-06-19T00:04:51;99847.94;;;24.40;49.36
32109;BME280;18624;50.042;8.436;2023-06-19T00:07:17;99856.56;;;24.42;49.44
32109;BME280;18624;50.042;8.436;2023-06-19T00:09:45;99747.22;;;23.62;49.58
32109;BME280;18624;50.042;8.436;2023-06-19T00:12:11;99797.56;;;23.94;49.82
32109;BME280;18624;50.042;8.436;2023-06-19T00:14:38;99823.47;;;24.14;49.44
32109;BME280;18624;50.042;8.436;2023-06-19T00:17:05;99840.81;;;24.25;49.41
32109;BME280;18624;50.042;8.436;2023-06-19T00:19:33;99834.25;;;24.23;49.33
32109;BME280;18624;50.042;8.436;2023-06-19T00:22:03;99782.19;;;23.88;49.31
32109;BME280;18624;50.042;8.436;2023-06-19T00:24:30;99835.31;;;24.33;49.22
32109;BME280;18624;50.042;8.436;2023-06-19T00:26:56;99812.16;;;24.19;49.38
32109;BME280;18624;50.042;8.436;2023-06-19T00:29:29;99797.91;;;24.04;49.41
32109;BME280;18624;50.042;8.436;2023-06-19T00:31:56;99843.50;;;24.31;49.36
32109;BME280;18624;50.042;8.436;2023-06-19T00:34:22;99840.25;;;24.27;49.51
32109;BME280;18624;50.042;8.436;2023-06-19T00:36:52;99840.25;;;24.27;49.65
32109;BME280;18624;50.042;8.436;2023-06-19T00:39:23;99830.25;;;24.18;50.19
32109;BME280;18624;50.042;8.436;2023-06-19T00:41:51;99758.78;;;23.72;50.24
32109;BME280;18624;50.042;8.436;2023-06-19T00:44:18;99845.09;;;24.26;50.30
32109;BME280;18624;50.042;8.436;2023-06-19T00:46:45;99819.47;;;24.09;50.39
32109;BME280;18624;50.042;8.436;2023-06-19T00:49:12;99848.13;;;24.15;50.82
32109;BME280;18624;50.042;8.436;2023-06-19T00:51:40;99870.19;;;24.19;50.74
32109;BME280;18624;50.042;8.436;2023-06-19T00:54:06;99817.03;;;23.73;50.73
32109;BME280;18624;50.042;8.436;2023-06-19T00:56:36;99854.03;;;24.12;49.92
32109;BME280;18624;50.042;8.436;2023-06-19T00:59:06;99855.31;;;24.11;49.72
32109;BME280;18624;50.042;8.436;2023-06-19T01:01:35;99871.41;;;24.23;49.61
32109;BME280;18624;50.042;8.436;2023-06-19T01:04:02;99854.91;;;24.20;49.54
32109;BME280;18624;50.042;8.436;2023-06-19T01:06:41;99826.56;;;23.97;49.68
32109;BME280;18624;50.042;8.436;2023-06-19T01:09:13;99872.56;;;24.15;50.06
32109;BME280;18624;50.042;8.436;2023-06-19T01:11:48;99831.69;;;23.80;50.28
32109;BME280;18624;50.042;8.436;2023-06-19T01:14:21;99862.53;;;24.06;49.68
32109;BME280;18624;50.042;8.436;2023-06-19T01:16:48;99868.88;;;24.07;50.00
32109;BME280;18624;50.042;8.436;2023-06-19T01:19:18;99856.63;;;24.10;50.52
32109;BME280;18624;50.042;8.436;2023-06-19T01:21:46;99846.66;;;23.95;50.47
32109;BME280;18624;50.042;8.436;2023-06-19T01:24:13;99860.13;;;23.97;50.92
32109;BME280;18624;50.042;8.436;2023-06-19T01:26:41;99790.44;;;23.48;51.17
32109;BME280;18624;50.042;8.436;2023-06-19T01:29:08;99867.03;;;23.96;50.89
32109;BME280;18624;50.042;8.436;2023-06-19T01:31:58;99851.50;;;23.95;50.58
32109;BME280;18624;50.042;8.436;2023-06-19T01:34:27;99839.22;;;23.85;50.75
32109;BME280;18624;50.042;8.436;2023-06-19T01:36:56;99844.91;;;23.79;50.72
32109;BME280;18624;50.042;8.436;2023-06-19T01:39:24;99868.69;;;23.86;50.59
32109;BME280;18624;50.042;8.436;2023-06-19T01:41:51;99852.41;;;23.71;50.75
32109;BME280;18624;50.042;8.436;2023-06-19T01:44:18;99775.25;;;23.11;51.40
32109;BME280;18624;50.042;8.436;2023-06-19T01:46:49;99866.31;;;23.77;51.40
32109;BME280;18624;50.042;8.436;2023-06-19T01:49:17;99864.25;;;23.77;51.57
32109;BME280;18624;50.042;8.436;2023-06-19T01:51:45;99857.69;;;23.74;51.58
32109;BME280;18624;50.042;8.436;2023-06-19T01:54:11;99856.25;;;23.68;51.77
32109;BME280;18624;50.042;8.436;2023-06-19T01:56:38;99869.94;;;23.71;52.01
32109;BME280;18624;50.042;8.436;2023-06-19T01:59:05;99800.69;;;23.27;51.72
32109;BME280;18624;50.042;8.436;2023-06-19T02:01:31;99866.50;;;23.65;52.23
32109;BME280;18624;50.042;8.436;2023-06-19T02:04:00;99899.75;;;23.69;51.97
32109;BME280;18624;50.042;8.436;2023-06-19T02:06:27;99916.66;;;23.58;52.53
32109;BME280;18624;50.042;8.436;2023-06-19T02:08:56;99880.16;;;23.31;52.38
32109;BME280;18624;50.042;8.436;2023-06-19T02:11:22;99923.69;;;23.45;52.43
32109;BME280;18624;50.042;8.436;2023-06-19T02:13:49;99901.25;;;23.32;52.74
32109;BME280;18624;50.042;8.436;2023-06-19T02:16:15;99923.19;;;23.47;53.55
32109;BME280;18624;50.042;8.436;2023-06-19T02:18:42;99899.38;;;23.21;54.14
32109;BME280;18624;50.042;8.436;2023-06-19T02:21:08;99866.56;;;23.03;54.76
32109;BME280;18624;50.042;8.436;2023-06-19T02:23:35;99889.00;;;23.16;55.22
32109;BME280;18624;50.042;8.436;2023-06-19T02:26:01;99922.28;;;23.39;55.65
32109;BME280;18624;50.042;8.436;2023-06-19T02:28:28;99814.91;;;22.66;56.36
32109;BME280;18624;50.042;8.436;2023-06-19T02:30:55;99921.06;;;23.34;56.92
32109;BME280;18624;50.042;8.436;2023-06-19T02:33:22;99886.66;;;23.02;57.67
32109;BME280;18624;50.042;8.436;2023-06-19T02:35:48;99930.34;;;23.23;57.40
32109;BME280;18624;50.042;8.436;2023-06-19T02:38:15;99862.59;;;22.74;57.57
32109;BME280;18624;50.042;8.436;2023-06-19T02:40:41;99937.00;;;23.20;57.28
32109;BME280;18624;50.042;8.436;2023-06-19T02:43:09;99943.09;;;23.19;56.90
32109;BME280;18624;50.042;8.436;2023-06-19T02:45:36;99917.22;;;22.94;56.67
32109;BME280;18624;50.042;8.436;2023-06-19T02:48:02;99941.66;;;23.12;56.02
32109;BME280;18624;50.042;8.436;2023-06-19T02:50:31;99931.84;;;23.06;55.86
32109;BME280;18624;50.042;8.436;2023-06-19T02:52:58;99948.75;;;23.13;55.81
32109;BME280;18624;50.042;8.436;2023-06-19T02:55:24;99949.00;;;23.15;55.56
32109;BME280;18624;50.042;8.436;2023-06-19T02:57:51;99916.47;;;22.93;55.60
32109;BME280;18624;50.042;8.436;2023-06-19T03:00:17;99921.59;;;22.89;55.88
32109;BME280;18624;50.042;8.436;2023-06-19T03:02:44;99955.84;;;23.14;55.89
32109;BME280;18624;50.042;8.436;2023-06-19T03:05:12;99954.59;;;23.15;56.02
32109;BME280;18624;50.042;8.436;2023-06-19T03:07:41;99944.75;;;23.09;56.11
32109;BME280;18624;50.042;8.436;2023-06-19T03:10:08;99964.03;;;23.12;56.51
32109;BME280;18624;50.042;8.436;2023-06-19T03:12:34;99960.47;;;23.12;56.79
32109;BME280;18624;50.042;8.436;2023-06-19T03:15:01;99939.13;;;22.90;57.35
32109;BME280;18624;50.042;8.436;2023-06-19T03:17:30;99967.09;;;23.09;57.93
32109;BME280;18624;50.042;8.436;2023-06-19T03:19:57;99986.91;;;23.11;58.02
32109;BME280;18624;50.042;8.436;2023-06-19T03:22:24;99983.41;;;23.05;58.52
32109;BME280;18624;50.042;8.436;2023-06-19T03:24:51;99977.88;;;22.99;58.93
32109;BME280;18624;50.042;8.436;2023-06-19T03:27:20;99983.19;;;23.03;59.14
32109;BME280;18624;50.042;8.436;2023-06-19T03:29:47;99993.09;;;23.04;59.36
32109;BME280;18624;50.042;8.436;2023-06-19T03:32:19;99936.81;;;22.64;59.86
32109;BME280;18624;50.042;8.436;2023-06-19T03:34:47;100002.00;;;23.02;59.90
32109;BME280;18624;50.042;8.436;2023-06-19T03:37:15;99921.75;;;22.48;59.93
32109;BME280;18624;50.042;8.436;2023-06-19T03:39:42;99995.66;;;23.02;60.37
32109;BME280;18624;50.042;8.436;2023-06-19T03:42:10;99997.91;;;23.03;60.32
32109;BME280;18624;50.042;8.436;2023-06-19T03:44:37;99988.38;;;22.93;60.78
32109;BME280;18624;50.042;8.436;2023-06-19T03:47:04;100022.25;;;23.08;61.02
32109;BME280;18624;50.042;8.436;2023-06-19T03:49:30;100022.06;;;23.00;61.50
32109;BME280;18624;50.042;8.436;2023-06-19T03:51:57;100026.75;;;22.87;62.02
32109;BME280;18624;50.042;8.436;2023-06-19T03:54:24;100031.34;;;22.90;62.06
32109;BME280;18624;50.042;8.436;2023-06-19T03:56:51;99964.00;;;22.33;62.52
32109;BME280;18624;50.042;8.436;2023-06-19T03:59:18;100043.53;;;22.87;63.54
32109;BME280;18624;50.042;8.436;2023-06-19T04:01:44;100048.31;;;22.92;64.01
32109;BME280;18624;50.042;8.436;2023-06-19T04:04:11;100036.19;;;22.84;63.86
32109;BME280;18624;50.042;8.436;2023-06-19T04:06:37;100057.19;;;22.96;63.63
32109;BME280;18624;50.042;8.436;2023-06-19T04:09:05;99998.88;;;22.51;63.52
32109;BME280;18624;50.042;8.436;2023-06-19T04:11:32;100064.59;;;22.93;63.53
32109;BME280;18624;50.042;8.436;2023-06-19T04:14:00;100061.25;;;22.95;63.23
32109;BME280;18624;50.042;8.436;2023-06-19T04:16:28;100069.66;;;22.95;63.70
32109;BME280;18624;50.042;8.436;2023-06-19T04:18:55;100063.06;;;22.87;64.05
32109;BME280;18624;50.042;8.436;2023-06-19T04:21:22;100066.94;;;22.84;63.98
32109;BME280;18624;50.042;8.436;2023-06-19T04:23:48;100073.00;;;22.88;64.79
32109;BME280;18624;50.042;8.436;2023-06-19T04:26:15;100077.31;;;22.89;65.10
32109;BME280;18624;50.042;8.436;2023-06-19T04:28:41;100077.31;;;22.89;65.34
32109;BME280;18624;50.042;8.436;2023-06-19T04:31:08;100071.00;;;22.83;65.62
32109;BME280;18624;50.042;8.436;2023-06-19T04:33:35;100075.53;;;22.86;65.50
32109;BME280;18624;50.042;8.436;2023-06-19T04:36:01;100088.22;;;22.87;65.48
32109;BME280;18624;50.042;8.436;2023-06-19T04:38:28;100080.91;;;22.84;65.51
32109;BME280;18624;50.042;8.436;2023-06-19T04:40:54;100092.56;;;22.88;66.08
32109;BME280;18624;50.042;8.436;2023-06-19T04:43:21;100078.84;;;22.90;66.07
32109;BME280;18624;50.042;8.436;2023-06-19T04:45:50;100029.81;;;22.59;66.13
32109;BME280;18624;50.042;8.436;2023-06-19T04:48:17;100077.81;;;22.93;65.81
32109;BME280;18624;50.042;8.436;2023-06-19T04:50:44;100087.34;;;23.03;65.73
32109;BME280;18624;50.042;8.436;2023-06-19T04:53:10;100053.72;;;22.84;66.26
32109;BME280;18624;50.042;8.436;2023-06-19T04:55:38;100085.25;;;23.09;66.77
32109;BME280;18624;50.042;8.436;2023-06-19T04:58:04;100084.50;;;23.09;66.78
32109;BME280;18624;50.042;8.436;2023-06-19T05:00:31;100034.59;;;22.64;66.77
32109;BME280;18624;50.042;8.436;2023-06-19T05:02:57;100081.78;;;23.03;66.58
32109;BME280;18624;50.042;8.436;2023-06-19T05:05:27;100089.59;;;23.10;66.71
32109;BME280;18624;50.042;8.436;2023-06-19T05:07:54;100077.00;;;22.98;66.20
32109;BME280;18624;50.042;8.436;2023-06-19T05:10:20;100095.69;;;23.09;66.94
32109;BME280;18624;50.042;8.436;2023-06-19T05:12:47;100069.94;;;22.91;67.02
32109;BME280;18624;50.042;8.436;2023-06-19T05:15:14;100085.31;;;23.04;67.14
32109;BME280;18624;50.042;8.436;2023-06-19T05:17:40;100103.03;;;23.12;67.15
32109;BME280;18624;50.042;8.436;2023-06-19T05:20:08;100092.81;;;23.14;68.12
32109;BME280;18624;50.042;8.436;2023-06-19T05:22:34;100093.38;;;23.13;68.42
32109;BME280;18624;50.042;8.436;2023-06-19T05:25:01;100090.38;;;23.05;68.08
32109;BME280;18624;50.042;8.436;2023-06-19T05:27:27;100046.91;;;22.80;67.98
32109;BME280;18624;50.042;8.436;2023-06-19T05:29:54;100066.50;;;23.04;68.07
32109;BME280;18624;50.042;8.436;2023-06-19T05:32:20;99980.91;;;22.46;67.92
32109;BME280;18624;50.042;8.436;2023-06-19T05:34:47;100041.25;;;22.85;67.09
32109;BME280;18624;50.042;8.436;2023-06-19T05:37:13;100090.00;;;23.20;67.03
32109;BME280;18624;50.042;8.436;2023-06-19T05:39:40;100094.84;;;23.19;66.76
32109;BME280;18624;50.042;8.436;2023-06-19T05:42:06;100093.03;;;23.22;66.53
32109;BME280;18624;50.042;8.436;2023-06-19T05:44:33;100090.28;;;23.16;67.10
32109;BME280;18624;50.042;8.436;2023-06-19T05:47:00;100027.56;;;22.82;66.89
32109;BME280;18624;50.042;8.436;2023-06-19T05:49:26;100052.06;;;23.00;67.20
32109;BME280;18624;50.042;8.436;2023-06-19T05:51:53;100017.22;;;22.77;67.16
32109;BME280;18624;50.042;8.436;2023-06-19T05:54:19;100018.97;;;22.80;67.77
32109;BME280;18624;50.042;8.436;2023-06-19T05:56:46;100083.88;;;23.21;68.77
32109;BME280;18624;50.042;8.436;2023-06-19T05:59:13;100097.56;;;23.25;69.99
32109;BME280;18624;50.042;8.436;2023-06-19T06:01:40;100096.81;;;23.24;69.82
32109;BME280;18624;50.042;8.436;2023-06-19T06:04:07;100104.19;;;23.22;69.75
32109;BME280;18624;50.042;8.436;2023-06-19T06:06:34;100074.66;;;23.02;69.88
32109;BME280;18624;50.042;8.436;2023-06-19T06:09:01;99966.28;;;22.35;69.31
32109;BME280;18624;50.042;8.436;2023-06-19T06:11:27;100108.75;;;23.25;70.20
32109;BME280;18624;50.042;8.436;2023-06-19T06:13:54;100075.38;;;23.08;70.25
32109;BME280;18624;50.042;8.436;2023-06-19T06:16:20;100099.97;;;23.15;71.05
32109;BME280;18624;50.042;8.436;2023-06-19T06:18:47;100107.75;;;23.22;70.74
32109;BME280;18624;50.042;8.436;2023-06-19T06:21:13;100126.28;;;23.25;69.86
32109;BME280;18624;50.042;8.436;2023-06-19T06:23:40;100127.03;;;23.26;70.04
32109;BME280;18624;50.042;8.436;2023-06-19T06:26:07;100087.22;;;22.90;70.23
32109;BME280;18624;50.042;8.436;2023-06-19T06:28:33;100077.50;;;22.96;70.48
32109;BME280;18624;50.042;8.436;2023-06-19T06:31:00;100068.41;;;22.90;71.42
32109;BME280;18624;50.042;8.436;2023-06-19T06:33:26;100057.19;;;22.96;71.24
32109;BME280;18624;50.042;8.436;2023-06-19T06:35:54;100091.09;;;23.11;71.10
32109;BME280;18624;50.042;8.436;2023-06-19T06:38:21;100108.47;;;23.29;71.19
32109;BME280;18624;50.042;8.436;2023-06-19T06:40:48;100076.88;;;23.09;72.73
32109;BME280;18624;50.042;8.436;2023-06-19T06:43:15;100036.19;;;22.84;72.15
32109;BME280;18624;50.042;8.436;2023-06-19T06:45:42;100132.22;;;23.41;72.95
32109;BME280;18624;50.042;8.436;2023-06-19T06:48:09;100082.53;;;23.04;72.78
32109;BME280;18624;50.042;8.436;2023-06-19T06:50:36;100073.31;;;23.09;72.92
32109;BME280;18624;50.042;8.436;2023-06-19T06:53:02;100133.63;;;23.53;72.55
32109;BME280;18624;50.042;8.436;2023-06-19T06:55:29;100125.19;;;23.59;72.21
32109;BME280;18624;50.042;8.436;2023-06-19T06:57:55;100078.19;;;23.33;72.10
32109;BME280;18624;50.042;8.436;2023-06-19T07:00:22;100127.59;;;23.73;70.95
32109;BME280;18624;50.042;8.436;2023-06-19T07:02:49;100126.91;;;23.86;70.14
32109;BME280;18624;50.042;8.436;2023-06-19T07:05:17;100103.38;;;23.76;69.55
32109;BME280;18624;50.042;8.436;2023-06-19T07:07:43;100106.66;;;23.80;68.52
32109;BME280;18624;50.042;8.436;2023-06-19T07:10:10;100056.25;;;23.37;69.73
32109;BME280;18624;50.042;8.436;2023-06-19T07:12:47;100142.09;;;23.96;69.74
32109;BME280;18624;50.042;8.436;2023-06-19T07:15:14;100151.63;;;24.07;69.85
32109;BME280;18624;50.042;8.436;2023-06-19T07:17:40;100143.91;;;24.13;71.01
32109;BME280;18624;50.042;8.436;2023-06-19T07:20:07;100147.53;;;24.26;67.20
32109;BME280;18624;50.042;8.436;2023-06-19T07:22:34;100138.91;;;24.24;69.12
32109;BME280;18624;50.042;8.436;2023-06-19T07:25:01;100147.78;;;24.29;68.62
32109;BME280;18624;50.042;8.436;2023-06-19T07:27:27;100117.44;;;24.14;69.39
32109;BME280;18624;50.042;8.436;2023-06-19T07:29:55;100140.44;;;24.25;69.30
32109;BME280;18624;50.042;8.436;2023-06-19T07:32:21;100142.63;;;24.33;68.86
32109;BME280;18624;50.042;8.436;2023-06-19T07:34:48;100157.38;;;24.33;69.00
32109;BME280;18624;50.042;8.436;2023-06-19T07:37:15;100148.22;;;24.33;68.86
32109;BME280;18624;50.042;8.436;2023-06-19T07:39:48;100163.31;;;24.48;69.85
32109;BME280;18624;50.042;8.436;2023-06-19T07:42:17;100167.78;;;24.57;70.21
32109;BME280;18624;50.042;8.436;2023-06-19T07:44:44;100159.50;;;24.65;68.43
32109;BME280;18624;50.042;8.436;2023-06-19T07:47:11;100165.34;;;24.67;67.13
32109;BME280;18624;50.042;8.436;2023-06-19T07:49:38;100155.31;;;24.71;66.38
32109;BME280;18624;50.042;8.436;2023-06-19T07:52:05;100164.25;;;24.89;66.05
32109;BME280;18624;50.042;8.436;2023-06-19T07:54:34;100121.03;;;24.65;64.47
32109;BME280;18624;50.042;8.436;2023-06-19T07:57:03;100155.66;;;25.00;64.44
32109;BME280;18624;50.042;8.436;2023-06-19T07:59:30;100175.03;;;25.17;62.70
32109;BME280;18624;50.042;8.436;2023-06-19T08:01:58;100165.78;;;25.22;62.14
32109;BME280;18624;50.042;8.436;2023-06-19T08:04:24;100176.25;;;25.35;62.71
32109;BME280;18624;50.042;8.436;2023-06-19T08:06:51;100164.81;;;25.33;61.92
32109;BME280;18624;50.042;8.436;2023-06-19T08:09:17;100164.38;;;25.29;62.80
32109;BME280;18624;50.042;8.436;2023-06-19T08:11:44;100175.31;;;25.45;63.00
32109;BME280;18624;50.042;8.436;2023-06-19T08:14:10;100141.19;;;25.28;63.25
32109;BME280;18624;50.042;8.436;2023-06-19T08:16:37;100186.75;;;25.61;63.35
32109;BME280;18624;50.042;8.436;2023-06-19T08:19:03;100170.25;;;25.70;62.85
32109;BME280;18624;50.042;8.436;2023-06-19T08:21:30;100175.38;;;25.85;61.53
32109;BME280;18624;50.042;8.436;2023-06-19T08:23:56;100174.94;;;25.94;61.49
32109;BME280;18624;50.042;8.436;2023-06-19T08:26:23;100186.59;;;25.98;59.40
32109;BME280;18624;50.042;8.436;2023-06-19T08:28:50;100179.44;;;25.97;58.97
32109;BME280;18624;50.042;8.436;2023-06-19T08:31:16;100178.59;;;25.89;58.37
32109;BME280;18624;50.042;8.436;2023-06-19T08:33:43;100176.00;;;25.78;59.27
32109;BME280;18624;50.042;8.436;2023-06-19T08:36:09;100159.13;;;25.65;59.83
32109;BME280;18624;50.042;8.436;2023-06-19T08:38:36;100161.31;;;25.72;60.37
32109;BME280;18624;50.042;8.436;2023-06-19T08:41:03;100192.94;;;26.12;60.33
32109;BME280;18624;50.042;8.436;2023-06-19T08:43:29;100146.72;;;26.00;58.32
32109;BME280;18624;50.042;8.436;2023-06-19T08:48:34;100158.00;;;26.34;57.58
32109;BME280;18624;50.042;8.436;2023-06-19T08:51:02;100178.59;;;26.63;57.18
32109;BME280;18624;50.042;8.436;2023-06-19T08:53:43;100180.50;;;26.68;57.67
32109;BME280;18624;50.042;8.436;2023-06-19T08:56:10;100187.22;;;26.65;56.87
32109;BME280;18624;50.042;8.436;2023-06-19T08:58:37;100188.94;;;26.68;57.74
32109;BME280;18624;50.042;8.436;2023-06-19T09:01:04;100182.75;;;26.70;57.05
32109;BME280;18624;50.042;8.436;2023-06-19T09:03:31;100164.41;;;26.69;55.70
32109;BME280;18624;50.042;8.436;2023-06-19T09:06:02;100173.19;;;26.86;57.08
32109;BME280;18624;50.042;8.436;2023-06-19T09:08:31;100172.53;;;26.93;56.60
32109;BME280;18624;50.042;8.436;2023-06-19T09:10:58;100173.84;;;27.13;56.63
32109;BME280;18624;50.042;8.436;2023-06-19T09:13:25;100182.97;;;27.27;55.47
32109;BME280;18624;50.042;8.436;2023-06-19T09:16:07;100185.50;;;27.17;55.47
32109;BME280;18624;50.042;8.436;2023-06-19T09:18:47;100107.44;;;26.68;55.11
32109;BME280;18624;50.042;8.436;2023-06-19T09:21:20;100132.75;;;26.89;57.27
32109;BME280;18624;50.042;8.436;2023-06-19T09:23:51;100178.50;;;27.32;54.31
32109;BME280;18624;50.042;8.436;2023-06-19T09:26:25;100136.66;;;27.07;55.22
32109;BME280;18624;50.042;8.436;2023-06-19T09:28:51;100177.81;;;27.39;54.09
32109;BME280;18624;50.042;8.436;2023-06-19T09:31:18;100182.19;;;27.47;54.09
32109;BME280;18624;50.042;8.436;2023-06-19T09:33:44;100186.34;;;27.54;53.89
32109;BME280;18624;50.042;8.436;2023-06-19T09:36:11;100176.47;;;27.61;54.27
32109;BME280;18624;50.042;8.436;2023-06-19T09:38:38;100079.91;;;26.95;55.13
32109;BME280;18624;50.042;8.436;2023-06-19T09:41:09;100185.44;;;27.80;54.12
32109;BME280;18624;50.042;8.436;2023-06-19T09:43:42;100187.84;;;27.76;52.67
32109;BME280;18624;50.042;8.436;2023-06-19T09:46:12;100186.25;;;27.67;54.16
32109;BME280;18624;50.042;8.436;2023-06-19T09:48:42;100183.25;;;27.65;54.07
32109;BME280;18624;50.042;8.436;2023-06-19T09:51:20;100122.25;;;27.11;53.88
32109;BME280;18624;50.042;8.436;2023-06-19T09:53:51;100186.75;;;27.58;54.33
32109;BME280;18624;50.042;8.436;2023-06-19T09:56:18;100177.69;;;27.73;54.05
32109;BME280;18624;50.042;8.436;2023-06-19T09:58:50;100153.56;;;27.64;53.64
32109;BME280;18624;50.042;8.436;2023-06-19T10:01:17;100148.31;;;27.61;52.21
32109;BME280;18624;50.042;8.436;2023-06-19T10:03:45;100177.47;;;27.71;51.87
32109;BME280;18624;50.042;8.436;2023-06-19T10:06:16;100173.94;;;27.49;51.98
32109;BME280;18624;50.042;8.436;2023-06-19T10:08:44;100186.84;;;27.45;53.62
32109;BME280;18624;50.042;8.436;2023-06-19T10:11:11;100180.41;;;27.37;54.34
32109;BME280;18624;50.042;8.436;2023-06-19T10:13:40;100139.53;;;26.94;53.75
32109;BME280;18624;50.042;8.436;2023-06-19T10:16:08;100185.50;;;27.17;53.92
32109;BME280;18624;50.042;8.436;2023-06-19T10:18:46;100147.63;;;26.76;54.74
32109;BME280;18624;50.042;8.436;2023-06-19T10:21:19;100190.75;;;27.00;54.97
32109;BME280;18624;50.042;8.436;2023-06-19T10:23:57;100187.34;;;26.94;55.28
32109;BME280;18624;50.042;8.436;2023-06-19T10:26:34;100185.84;;;26.93;55.64
32109;BME280;18624;50.042;8.436;2023-06-19T10:29:06;100183.53;;;26.91;55.99
32109;BME280;18624;50.042;8.436;2023-06-19T10:31:39;100176.41;;;26.90;55.18
32109;BME280;18624;50.042;8.436;2023-06-19T10:34:06;100184.31;;;26.92;54.49
32109;BME280;18624;50.042;8.436;2023-06-19T10:36:32;100189.25;;;26.99;53.92
32109;BME280;18624;50.042;8.436;2023-06-19T10:38:59;100171.00;;;26.92;53.97
32109;BME280;18624;50.042;8.436;2023-06-19T10:41:26;100179.38;;;27.06;52.91
32109;BME280;18624;50.042;8.436;2023-06-19T10:46:21;100179.31;;;27.19;52.84
32109;BME280;18624;50.042;8.436;2023-06-19T10:48:49;100175.81;;;27.26;53.29
32109;BME280;18624;50.042;8.436;2023-06-19T10:51:19;100162.69;;;27.29;53.36
32109;BME280;18624;50.042;8.436;2023-06-19T10:53:46;100174.78;;;27.37;52.02
32109;BME280;18624;50.042;8.436;2023-06-19T10:56:12;100169.03;;;27.42;52.32
32109;BME280;18624;50.042;8.436;2023-06-19T10:58:39;100180.88;;;27.48;52.35
32109;BME280;18624;50.042;8.436;2023-06-19T11:01:05;100142.22;;;27.20;51.52
32109;BME280;18624;50.042;8.436;2023-06-19T11:03:32;100182.13;;;27.40;51.33
32109;BME280;18624;50.042;8.436;2023-06-19T11:05:58;100175.53;;;27.37;51.92
32109;BME280;18624;50.042;8.436;2023-06-19T11:08:25;100162.69;;;27.29;51.90
32109;BME280;18624;50.042;8.436;2023-06-19T11:10:52;100173.28;;;27.36;52.24
32109;BME280;18624;50.042;8.436;2023-06-19T11:13:19;100160.09;;;27.31;51.56
32109;BME280;18624;50.042;8.436;2023-06-19T11:15:50;100008.41;;;26.20;50.83
32109;BME280;18624;50.042;8.436;2023-06-19T11:18:18;100150.84;;;27.22;51.00
32109;BME280;18624;50.042;8.436;2023-06-19T11:20:47;100147.69;;;27.26;49.78
32109;BME280;18624;50.042;8.436;2023-06-19T11:23:14;100135.13;;;27.06;50.26
32109;BME280;18624;50.042;8.436;2023-06-19T11:25:42;100155.25;;;27.10;50.63
32109;BME280;18624;50.042;8.436;2023-06-19T11:28:15;100151.25;;;27.06;51.47
32109;BME280;18624;50.042;8.436;2023-06-19T11:30:44;100090.91;;;26.65;52.55
32109;BME280;18624;50.042;8.436;2023-06-19T11:33:20;100154.34;;;27.15;53.30
32109;BME280;18624;50.042;8.436;2023-06-19T11:35:52;100124.66;;;27.07;54.04
32109;BME280;18624;50.042;8.436;2023-06-19T11:38:24;100101.66;;;26.95;53.46
32109;BME280;18624;50.042;8.436;2023-06-19T11:40:52;100118.91;;;27.12;52.96
32109;BME280;18624;50.042;8.436;2023-06-19T11:43:27;100092.16;;;27.06;53.46
32109;BME280;18624;50.042;8.436;2023-06-19T11:45:59;100075.44;;;27.00;50.63
32109;BME280;18624;50.042;8.436;2023-06-19T11:48:28;100128.31;;;27.43;50.94
32109;BME280;18624;50.042;8.436;2023-06-19T11:50:54;100131.31;;;27.45;51.79
32109;BME280;18624;50.042;8.436;2023-06-19T11:53:22;100139.25;;;27.55;51.49
32109;BME280;18624;50.042;8.436;2023-06-19T11:55:50;100115.84;;;27.31;50.88
32109;BME280;18624;50.042;8.436;2023-06-19T11:58:17;100147.09;;;27.48;51.78
32109;BME280;18624;50.042;8.436;2023-06-19T12:00:44;100138.81;;;27.43;52.83
32109;BME280;18624;50.042;8.436;2023-06-19T12:03:11;100142.28;;;27.57;52.06
32109;BME280;18624;50.042;8.436;2023-06-19T12:05:38;100098.78;;;27.37;51.46
32109;BME280;18624;50.042;8.436;2023-06-19T12:08:05;100134.25;;;27.68;50.56
32109;BME280;18624;50.042;8.436;2023-06-19T12:10:34;100131.25;;;27.66;51.44
32109;BME280;18624;50.042;8.436;2023-06-19T12:13:00;100086.84;;;27.44;50.05
32109;BME280;18624;50.042;8.436;2023-06-19T12:15:27;100103.22;;;27.53;50.30
32109;BME280;18624;50.042;8.436;2023-06-19T12:17:54;100132.50;;;27.79;49.51
32109;BME280;18624;50.042;8.436;2023-06-19T12:20:20;100134.06;;;27.66;50.48
32109;BME280;18624;50.042;8.436;2023-06-19T12:22:48;100094.28;;;27.34;50.95
32109;BME280;18624;50.042;8.436;2023-06-19T12:28:47;99732.34;;;24.53;50.80
32109;BME280;18624;50.042;8.436;2023-06-19T12:32:16;99691.53;;;24.31;50.63
32109;BME280;18624;50.042;8.436;2023-06-19T12:35:24;99852.22;;;25.55;51.04
32109;BME280;18624;50.042;8.436;2023-06-19T12:37:52;100068.09;;;27.18;50.47
32109;BME280;18624;50.042;8.436;2023-06-19T12:40:19;100089.00;;;27.30;50.75
32109;BME280;18624;50.042;8.436;2023-06-19T12:42:46;100081.31;;;27.31;50.32
32109;BME280;18624;50.042;8.436;2023-06-19T12:45:12;100111.84;;;27.55;50.32
32109;BME280;18624;50.042;8.436;2023-06-19T12:47:39;100076.91;;;27.43;49.45
32109;BME280;18624;50.042;8.436;2023-06-19T12:50:06;100121.16;;;27.71;48.93
32109;BME280;18624;50.042;8.436;2023-06-19T12:52:32;100124.41;;;27.75;49.05
32109;BME280;18624;50.042;8.436;2023-06-19T12:54:59;100117.28;;;27.82;50.21
32109;BME280;18624;50.042;8.436;2023-06-19T12:57:28;100122.00;;;27.87;48.92
32109;BME280;18624;50.042;8.436;2023-06-19T12:59:55;100067.44;;;27.61;48.03
32109;BME280;18624;50.042;8.436;2023-06-19T13:02:21;100122.63;;;28.00;47.76
32109;BME280;18624;50.042;8.436;2023-06-19T13:04:48;100119.66;;;28.06;47.46
32109;BME280;18624;50.042;8.436;2023-06-19T13:07:15;100110.25;;;28.04;47.14